Time;durP1;ratioP1;P1;durP2;ratioP2;P2;SDS_P1;SDS_P2;PMS_P1;PMS_P2;Temp;Humidity;BMP_temperature;BMP_pressure;BME280_temperature;BME280_humidity;BME280_pressure;Samples;Min_cycle;Max_cycle;Signal;HPM_P1;HPM_P2
2023/09/28 00:02:58;;;;;;;6.43;5.53;;;13.10;99.90;;;;;;5017115;28;20212;-28
2023/09/28 00:05:23;;;;;;;5.90;5.30;;;13.00;99.90;;;;;;5015311;28;20187;-29
2023/09/28 00:07:52;;;;;;;6.37;5.47;;;13.00;99.90;;;;;;5014352;28;20187;-28
2023/09/28 00:10:18;;;;;;;6.73;5.13;;;13.00;99.90;;;;;;4998247;28;20201;-28
2023/09/28 00:12:48;;;;;;;7.03;5.20;;;12.90;99.90;;;;;;4999723;28;20184;-28
2023/09/28 00:15:14;;;;;;;5.70;4.97;;;13.00;99.90;;;;;;5001711;28;20278;-28
2023/09/28 00:17:41;;;;;;;7.83;5.63;;;13.00;99.90;;;;;;4982687;28;20217;-28
2023/09/28 00:20:18;;;;;;;7.70;5.10;;;13.00;99.90;;;;;;4982999;28;20196;-27
2023/09/28 00:22:49;;;;;;;5.50;4.60;;;13.10;99.90;;;;;;4985760;28;20191;-28
2023/09/28 00:25:16;;;;;;;5.83;4.90;;;13.10;99.90;;;;;;5016226;28;20186;-28
2023/09/28 00:27:48;;;;;;;7.73;5.03;;;13.10;99.90;;;;;;5016960;28;20180;-27
2023/09/28 00:30:21;;;;;;;5.63;4.73;;;13.20;99.90;;;;;;5014175;28;20243;-29
2023/09/28 00:32:49;;;;;;;7.63;5.13;;;13.20;99.90;;;;;;4998580;28;20180;-28
2023/09/28 00:35:16;;;;;;;5.53;4.57;;;13.20;99.90;;;;;;5013456;28;20176;-28
2023/09/28 00:37:42;;;;;;;5.67;5.00;;;13.20;99.90;;;;;;5013899;28;20191;-28
2023/09/28 00:40:20;;;;;;;7.77;5.17;;;13.20;99.90;;;;;;5010111;28;20207;-28
2023/09/28 00:42:50;;;;;;;6.40;5.13;;;13.20;99.90;;;;;;4997524;28;20190;-28
2023/09/28 00:45:19;;;;;;;4.60;4.20;;;13.20;99.90;;;;;;5014599;28;20176;-28
2023/09/28 00:47:46;;;;;;;5.63;5.00;;;13.20;99.90;;;;;;5013664;28;20180;-28
2023/09/28 00:50:14;;;;;;;6.13;5.53;;;13.20;99.90;;;;;;5015817;28;20222;-28
2023/09/28 00:52:46;;;;;;;6.97;4.90;;;13.10;99.90;;;;;;5012957;28;20184;-28
2023/09/28 00:55:15;;;;;;;6.30;5.10;;;13.10;99.90;;;;;;5014490;28;20215;-28
2023/09/28 00:57:46;;;;;;;6.07;4.97;;;13.10;99.90;;;;;;4996237;28;20194;-28
2023/09/28 01:00:26;;;;;;;6.17;4.67;;;13.00;99.90;;;;;;4998437;28;20234;-29
2023/09/28 01:02:54;;;;;;;8.93;4.90;;;13.00;99.90;;;;;;5013319;28;20207;-28
2023/09/28 01:05:20;;;;;;;7.53;5.00;;;13.00;99.90;;;;;;5012883;28;20180;-28
2023/09/28 01:07:47;;;;;;;6.20;4.80;;;13.00;99.90;;;;;;4995898;28;20176;-29
2023/09/28 01:10:18;;;;;;;5.20;4.70;;;13.00;99.90;;;;;;4996635;28;20207;-28
2023/09/28 01:12:44;;;;;;;5.57;5.07;;;13.00;99.90;;;;;;5014909;28;20184;-28
2023/09/28 01:15:12;;;;;;;9.03;4.90;;;12.90;99.90;;;;;;5015618;28;20184;-28
2023/09/28 01:17:39;;;;;;;7.30;5.30;;;12.90;99.90;;;;;;5015558;28;20190;-28
2023/09/28 01:20:16;;;;;;;5.77;5.27;;;12.90;99.90;;;;;;5003988;28;20196;-28
2023/09/28 01:22:43;;;;;;;6.47;4.93;;;12.80;99.90;;;;;;5014977;28;20191;-28
2023/09/28 01:25:09;;;;;;;5.03;4.50;;;12.80;99.90;;;;;;5003449;28;20179;-28
2023/09/28 01:27:36;;;;;;;5.53;5.00;;;12.80;99.90;;;;;;5018987;28;20184;-28
2023/09/28 01:30:05;;;;;;;7.10;5.80;;;12.80;99.90;;;;;;5001396;28;20228;-28
2023/09/28 01:32:32;;;;;;;7.50;5.67;;;12.80;99.90;;;;;;5018158;28;20175;-28
2023/09/28 01:34:58;;;;;;;6.90;5.03;;;12.80;99.90;;;;;;5018056;28;20179;-28
2023/09/28 01:37:33;;;;;;;6.57;5.10;;;12.90;99.90;;;;;;5019001;28;20176;-28
2023/09/28 01:39:59;;;;;;;5.77;5.00;;;13.00;99.90;;;;;;5017180;28;20230;-28
2023/09/28 01:42:24;;;;;;;5.53;4.93;;;13.00;99.90;;;;;;5018225;28;20262;-28
2023/09/28 01:44:50;;;;;;;8.30;5.17;;;13.00;99.90;;;;;;5018501;28;20239;-28
2023/09/28 01:47:16;;;;;;;5.90;5.37;;;13.00;99.90;;;;;;5019015;28;20183;-28
2023/09/28 01:49:42;;;;;;;7.93;5.70;;;13.00;99.90;;;;;;5012153;28;20299;-28
2023/09/28 01:52:08;;;;;;;7.50;5.37;;;13.00;99.90;;;;;;4988457;28;20191;-28
2023/09/28 01:54:33;;;;;;;10.10;5.50;;;13.00;99.90;;;;;;5004021;28;20181;-28
2023/09/28 01:56:59;;;;;;;6.70;5.00;;;13.00;99.90;;;;;;5018415;28;20191;-28
2023/09/28 01:59:25;;;;;;;5.73;5.13;;;13.00;99.90;;;;;;5017435;28;20272;-28
2023/09/28 02:01:51;;;;;;;7.13;5.70;;;13.00;99.90;;;;;;5001650;28;20186;-28
2023/09/28 02:04:17;;;;;;;7.30;5.47;;;13.00;99.90;;;;;;5019123;28;20203;-28
2023/09/28 02:06:43;;;;;;;6.87;5.63;;;13.00;99.90;;;;;;5016321;28;20187;-29
2023/09/28 02:09:10;;;;;;;7.33;5.50;;;13.00;99.90;;;;;;4988900;28;20192;-28
2023/09/28 02:11:43;;;;;;;7.43;5.13;;;13.00;99.90;;;;;;5000005;28;20294;-29
2023/09/28 02:14:11;;;;;;;6.83;4.53;;;13.10;99.90;;;;;;5017184;28;20191;-28
2023/09/28 02:16:37;;;;;;;6.60;5.00;;;13.10;99.90;;;;;;5018624;28;20183;-29
2023/09/28 02:19:04;;;;;;;6.37;5.30;;;13.10;99.90;;;;;;5001325;28;20190;-28
2023/09/28 02:21:29;;;;;;;6.20;5.03;;;13.10;99.90;;;;;;5017506;28;20199;-28
2023/09/28 02:23:58;;;;;;;5.77;5.20;;;13.00;99.90;;;;;;5018368;28;20207;-28
2023/09/28 02:26:25;;;;;;;6.20;4.80;;;13.00;99.90;;;;;;5017485;28;20180;-28
2023/09/28 02:28:52;;;;;;;5.90;4.93;;;13.10;99.90;;;;;;5001523;28;20187;-28
2023/09/28 02:31:18;;;;;;;7.70;5.17;;;13.00;99.90;;;;;;5018133;28;20214;-28
2023/09/28 02:33:47;;;;;;;7.47;4.77;;;13.00;99.90;;;;;;5005672;28;20187;-28
2023/09/28 02:36:14;;;;;;;6.73;5.00;;;12.90;99.90;;;;;;4990193;28;20184;-28
2023/09/28 02:38:40;;;;;;;7.27;5.13;;;12.80;99.90;;;;;;5001167;28;20190;-28
2023/09/28 02:41:15;;;;;;;6.53;5.10;;;12.80;99.90;;;;;;5017316;28;20207;-28
2023/09/28 02:43:41;;;;;;;7.47;5.50;;;12.80;99.90;;;;;;5007221;28;20210;-28
2023/09/28 02:46:07;;;;;;;7.97;5.93;;;12.80;99.90;;;;;;5017109;28;20209;-28
2023/09/28 02:48:33;;;;;;;6.33;5.67;;;12.70;99.90;;;;;;5018492;28;20175;-28
2023/09/28 02:51:00;;;;;;;6.93;6.23;;;12.70;99.90;;;;;;5017465;28;20257;-28
2023/09/28 02:53:26;;;;;;;6.47;5.33;;;12.70;99.90;;;;;;5016689;28;20211;-29
2023/09/28 02:55:52;;;;;;;5.93;5.30;;;12.60;99.90;;;;;;5016560;28;20196;-28
2023/09/28 02:58:21;;;;;;;6.10;5.50;;;12.60;99.90;;;;;;5000794;28;20194;-28
2023/09/28 03:00:48;;;;;;;8.60;6.00;;;12.60;99.90;;;;;;5017080;28;20675;-28
2023/09/28 03:03:14;;;;;;;5.97;5.37;;;12.60;99.90;;;;;;5015493;28;20195;-28
2023/09/28 03:05:40;;;;;;;6.80;5.77;;;12.60;99.90;;;;;;5016771;28;20191;-28
2023/09/28 03:08:09;;;;;;;7.37;5.57;;;12.70;99.90;;;;;;5016588;28;20192;-28
2023/09/28 03:10:41;;;;;;;6.30;5.50;;;12.70;99.90;;;;;;5018051;28;20211;-28
2023/09/28 03:13:11;;;;;;;6.87;5.77;;;12.70;99.90;;;;;;5006582;28;20187;-28
2023/09/28 03:15:46;;;;;;;5.90;5.30;;;12.70;99.90;;;;;;5013737;28;20179;-28
2023/09/28 03:18:13;;;;;;;6.67;5.30;;;12.70;99.90;;;;;;5008531;28;20283;-28
2023/09/28 03:20:44;;;;;;;7.90;5.50;;;12.70;99.90;;;;;;5016977;28;20226;-28
2023/09/28 03:23:13;;;;;;;5.70;5.10;;;12.70;99.90;;;;;;5017140;28;20207;-27
2023/09/28 03:25:39;;;;;;;7.07;6.30;;;12.70;99.90;;;;;;5016646;28;20279;-28
2023/09/28 03:28:05;;;;;;;8.43;5.83;;;12.70;99.90;;;;;;5016673;28;20275;-28
2023/09/28 03:30:31;;;;;;;6.20;5.60;;;12.70;99.90;;;;;;5000022;28;20591;-28
2023/09/28 03:32:58;;;;;;;6.67;5.30;;;12.80;99.90;;;;;;5016788;28;20263;-29
2023/09/28 03:35:24;;;;;;;6.00;5.50;;;12.70;99.90;;;;;;4997589;28;20338;-28
2023/09/28 03:37:54;;;;;;;7.63;5.73;;;12.70;99.90;;;;;;5000903;28;20241;-28
2023/09/28 03:40:20;;;;;;;6.03;5.50;;;12.70;99.90;;;;;;4989723;28;20214;-29
2023/09/28 03:42:50;;;;;;;5.93;5.43;;;12.70;99.90;;;;;;5016429;28;20175;-29
2023/09/28 03:45:20;;;;;;;6.27;5.67;;;12.80;99.90;;;;;;5000846;28;20210;-29
2023/09/28 03:47:50;;;;;;;6.87;5.70;;;12.80;99.90;;;;;;4999121;28;20185;-28
2023/09/28 03:50:16;;;;;;;6.20;5.20;;;12.80;99.90;;;;;;5005994;28;20199;-29
2023/09/28 03:52:46;;;;;;;7.63;5.37;;;12.80;99.90;;;;;;5016949;28;20246;-29
2023/09/28 03:55:14;;;;;;;7.60;5.83;;;12.80;99.90;;;;;;5018231;28;20190;-28
2023/09/28 03:57:42;;;;;;;7.43;5.17;;;12.90;99.90;;;;;;5016864;28;20180;-28
2023/09/28 04:00:12;;;;;;;6.03;4.90;;;12.90;99.90;;;;;;5017252;28;20203;-28
2023/09/28 04:02:38;;;;;;;5.83;5.20;;;12.90;99.90;;;;;;5014756;28;20184;-28
2023/09/28 04:05:07;;;;;;;5.60;5.10;;;12.90;99.90;;;;;;5013948;28;20183;-28
2023/09/28 04:07:33;;;;;;;7.17;5.70;;;12.90;99.90;;;;;;5015609;28;20180;-29
2023/09/28 04:09:59;;;;;;;7.90;4.87;;;12.90;99.90;;;;;;5014244;28;20204;-29
2023/09/28 04:12:25;;;;;;;5.70;5.10;;;12.90;99.90;;;;;;5015105;28;20266;-28
2023/09/28 04:14:52;;;;;;;5.50;4.63;;;12.90;99.90;;;;;;4998433;28;20307;-29
2023/09/28 04:17:18;;;;;;;6.97;5.03;;;12.90;99.90;;;;;;5004449;28;20184;-29
2023/09/28 04:19:44;;;;;;;6.73;5.23;;;12.90;99.90;;;;;;5005426;28;20262;-28
2023/09/28 04:22:10;;;;;;;5.30;4.70;;;12.90;99.90;;;;;;5015582;28;20215;-28
2023/09/28 04:24:36;;;;;;;6.23;4.57;;;12.90;99.90;;;;;;5017113;28;20207;-29
2023/09/28 04:27:02;;;;;;;5.13;4.63;;;12.90;99.90;;;;;;5018082;28;20186;-28
2023/09/28 04:29:28;;;;;;;5.77;4.93;;;12.90;99.90;;;;;;5014600;28;20180;-29
2023/09/28 04:31:54;;;;;;;5.63;5.03;;;12.80;99.90;;;;;;4985844;28;20228;-28
2023/09/28 04:34:20;;;;;;;7.10;5.40;;;12.80;99.90;;;;;;4983891;28;20194;-28
2023/09/28 04:36:46;;;;;;;6.13;5.00;;;12.80;99.90;;;;;;4988367;28;20237;-28
2023/09/28 04:39:13;;;;;;;5.90;4.40;;;12.80;99.90;;;;;;4991419;28;20249;-28
2023/09/28 04:41:40;;;;;;;6.00;4.80;;;12.80;99.90;;;;;;4955455;28;20290;-28
2023/09/28 04:44:07;;;;;;;5.77;5.10;;;12.90;99.90;;;;;;4991598;28;20211;-29
2023/09/28 04:46:43;;;;;;;5.43;4.93;;;12.90;99.90;;;;;;4985397;28;20176;-28
2023/09/28 04:49:10;;;;;;;7.97;5.20;;;12.90;99.90;;;;;;5006755;28;20184;-28
2023/09/28 04:51:36;;;;;;;8.57;5.60;;;12.90;99.90;;;;;;4982376;28;20199;-27
2023/09/28 04:54:04;;;;;;;7.03;5.20;;;12.90;99.90;;;;;;4989467;28;20187;-28
2023/09/28 04:56:32;;;;;;;6.10;4.60;;;12.90;99.90;;;;;;5000007;28;20203;-28
2023/09/28 04:59:02;;;;;;;8.97;5.47;;;12.90;99.90;;;;;;4982983;28;20253;-28
2023/09/28 05:01:29;;;;;;;6.60;5.30;;;12.80;99.90;;;;;;4989340;28;20195;-28
2023/09/28 05:03:55;;;;;;;6.07;4.90;;;12.90;99.90;;;;;;4992655;28;20210;-28
2023/09/28 05:06:21;;;;;;;7.13;4.70;;;12.80;99.90;;;;;;4993877;28;20207;-28
2023/09/28 05:08:47;;;;;;;6.83;4.80;;;12.80;99.90;;;;;;4987082;28;20186;-28
2023/09/28 05:11:13;;;;;;;6.03;5.43;;;12.80;99.90;;;;;;4985259;28;20192;-28
2023/09/28 05:13:39;;;;;;;6.20;5.10;;;12.70;99.90;;;;;;4993635;28;20198;-28
2023/09/28 05:16:04;;;;;;;7.00;4.73;;;12.70;99.90;;;;;;4993525;28;20283;-28
2023/09/28 05:18:30;;;;;;;7.37;5.33;;;12.70;99.90;;;;;;4986676;28;20180;-28
2023/09/28 05:20:56;;;;;;;5.40;4.50;;;12.70;99.90;;;;;;4988341;28;20212;-28
2023/09/28 05:23:22;;;;;;;7.20;5.40;;;12.70;99.90;;;;;;4994307;28;20207;-28
2023/09/28 05:25:48;;;;;;;9.10;5.50;;;12.80;99.90;;;;;;4989593;28;20184;-28
2023/09/28 05:28:14;;;;;;;7.83;4.93;;;12.80;99.90;;;;;;4991133;28;20199;-28
2023/09/28 05:30:40;;;;;;;6.67;4.83;;;12.80;99.90;;;;;;4997030;28;20224;-28
2023/09/28 05:33:06;;;;;;;5.73;4.70;;;12.80;99.90;;;;;;5003238;28;20242;-28
2023/09/28 05:35:32;;;;;;;5.77;4.90;;;12.80;99.90;;;;;;5017146;28;20180;-28
2023/09/28 05:37:58;;;;;;;5.47;4.97;;;12.80;99.90;;;;;;5002976;28;20237;-28
2023/09/28 05:40:25;;;;;;;8.17;5.63;;;12.80;99.90;;;;;;5009439;28;20227;-28
2023/09/28 05:42:51;;;;;;;10.03;5.07;;;12.80;99.90;;;;;;5018489;28;20183;-28
2023/09/28 05:45:17;;;;;;;6.40;5.20;;;12.80;99.90;;;;;;5010989;28;20254;-28
2023/09/28 05:47:43;;;;;;;5.73;5.10;;;12.80;99.90;;;;;;5015746;28;20281;-28
2023/09/28 05:50:11;;;;;;;8.23;5.30;;;12.90;99.90;;;;;;5017109;28;20207;-28
2023/09/28 05:52:37;;;;;;;6.07;4.53;;;12.90;99.90;;;;;;5017434;28;20180;-29
2023/09/28 05:55:03;;;;;;;6.00;4.93;;;12.90;99.90;;;;;;5001354;28;20710;-28
2023/09/28 05:57:29;;;;;;;5.83;5.13;;;12.90;99.90;;;;;;5018598;28;20238;-28
2023/09/28 05:59:56;;;;;;;6.03;5.10;;;13.00;99.90;;;;;;5018367;28;20206;-28
2023/09/28 06:02:21;;;;;;;6.63;5.13;;;12.90;99.90;;;;;;5001896;28;20191;-28
2023/09/28 06:04:48;;;;;;;8.07;5.00;;;12.90;99.90;;;;;;5018350;28;20218;-28
2023/09/28 06:07:14;;;;;;;6.57;5.20;;;12.90;99.90;;;;;;5002973;28;20179;-28
2023/09/28 06:09:43;;;;;;;5.93;4.90;;;13.00;99.90;;;;;;5018185;28;20231;-28
2023/09/28 06:12:09;;;;;;;5.87;5.10;;;13.00;99.90;;;;;;5007581;28;20184;-28
2023/09/28 06:14:35;;;;;;;7.23;5.30;;;13.00;99.90;;;;;;5018766;28;20238;-28
2023/09/28 06:17:01;;;;;;;6.17;4.70;;;12.90;99.90;;;;;;5019364;28;20194;-29
2023/09/28 06:19:28;;;;;;;6.93;5.40;;;12.90;99.90;;;;;;4996708;28;20274;-28
2023/09/28 06:21:54;;;;;;;7.57;5.73;;;12.90;99.90;;;;;;5002154;28;20267;-28
2023/09/28 06:24:21;;;;;;;5.90;5.30;;;13.00;99.90;;;;;;5000551;28;20208;-28
2023/09/28 06:26:48;;;;;;;7.60;5.13;;;13.00;99.90;;;;;;5004619;28;20649;-28
2023/09/28 06:29:15;;;;;;;6.23;5.37;;;13.10;99.90;;;;;;5003535;28;20184;-28
2023/09/28 06:31:45;;;;;;;6.03;5.40;;;13.20;99.90;;;;;;5117368;22;20323;-30
2023/09/28 06:34:11;;;;;;;6.67;4.83;;;13.20;99.90;;;;;;5080154;28;20283;-29
2023/09/28 06:36:38;;;;;;;6.80;5.50;;;13.30;99.90;;;;;;5065095;28;20180;-30
2023/09/28 06:39:04;;;;;;;6.10;5.30;;;13.30;99.90;;;;;;5067211;28;20202;-30
2023/09/28 06:41:31;;;;;;;6.33;5.73;;;13.40;99.90;;;;;;5078396;28;20196;-30
2023/09/28 06:43:57;;;;;;;8.37;5.43;;;13.60;99.90;;;;;;5060200;28;20206;-30
2023/09/28 06:46:23;;;;;;;8.40;5.60;;;13.60;99.90;;;;;;5079641;28;20352;-30
2023/09/28 06:48:52;;;;;;;7.23;5.30;;;13.70;99.90;;;;;;5061870;28;20247;-30
2023/09/28 06:51:20;;;;;;;8.00;5.40;;;13.80;99.90;;;;;;5058230;28;20202;-30
2023/09/28 06:53:48;;;;;;;7.07;5.73;;;13.90;99.90;;;;;;5062853;28;20197;-30
2023/09/28 06:56:16;;;;;;;7.03;5.93;;;13.90;99.90;;;;;;5064760;28;20235;-30
2023/09/28 06:58:43;;;;;;;7.03;5.07;;;13.90;99.90;;;;;;5060710;28;20223;-30
2023/09/28 07:01:10;;;;;;;6.83;5.60;;;13.90;99.90;;;;;;5050733;28;20204;-30
2023/09/28 07:03:36;;;;;;;11.43;5.67;;;13.90;99.90;;;;;;5058067;28;20206;-30
2023/09/28 07:06:02;;;;;;;8.33;5.43;;;13.90;99.90;;;;;;5056413;28;20176;-30
2023/09/28 07:08:28;;;;;;;8.33;5.30;;;13.90;99.90;;;;;;5060467;28;20227;-30
2023/09/28 07:10:54;;;;;;;5.73;5.13;;;13.90;99.90;;;;;;5075593;28;20702;-30
2023/09/28 07:13:20;;;;;;;6.00;5.27;;;13.90;99.90;;;;;;5074765;28;20195;-30
2023/09/28 07:15:47;;;;;;;7.30;5.57;;;13.90;99.90;;;;;;5058366;28;20271;-30
2023/09/28 07:18:13;;;;;;;7.03;5.57;;;13.90;99.90;;;;;;5059957;28;20188;-30
2023/09/28 07:20:39;;;;;;;7.33;5.97;;;14.00;99.90;;;;;;5056668;28;20199;-30
2023/09/28 07:23:05;;;;;;;9.83;5.83;;;14.00;99.90;;;;;;5056991;28;20188;-30
2023/09/28 07:25:31;;;;;;;9.20;5.40;;;14.00;99.90;;;;;;5059494;28;20173;-30
2023/09/28 07:27:57;;;;;;;5.63;4.97;;;14.10;99.90;;;;;;5061094;28;20181;-29
2023/09/28 07:30:23;;;;;;;7.03;5.37;;;14.20;99.90;;;;;;5004509;28;1586354;-30
2023/09/28 07:32:50;;;;;;;8.80;5.43;;;14.20;99.90;;;;;;5052587;28;20182;-30
2023/09/28 07:35:17;;;;;;;7.67;5.70;;;14.20;99.90;;;;;;5061769;28;20177;-30
2023/09/28 07:37:44;;;;;;;7.33;5.63;;;14.30;99.90;;;;;;5061912;28;20189;-30
2023/09/28 07:40:12;;;;;;;6.93;5.70;;;14.20;99.90;;;;;;5061943;28;20234;-30
2023/09/28 07:42:45;;;;;;;8.83;6.07;;;14.40;99.90;;;;;;5061337;28;20186;-30
2023/09/28 07:45:13;;;;;;;7.80;5.67;;;14.50;99.90;;;;;;5067054;28;20326;-30
2023/09/28 07:47:39;;;;;;;10.97;6.10;;;14.70;99.90;;;;;;5078480;28;20212;-30
2023/09/28 07:50:06;;;;;;;7.73;5.47;;;14.90;99.90;;;;;;5075695;28;20270;-30
2023/09/28 07:52:32;;;;;;;10.20;7.17;;;15.00;99.90;;;;;;5070201;28;20176;-30
2023/09/28 07:54:58;;;;;;;10.07;6.30;;;15.30;99.90;;;;;;5059852;28;20182;-30
2023/09/28 07:57:24;;;;;;;8.83;5.97;;;15.40;99.90;;;;;;5079751;28;20177;-30
2023/09/28 07:59:54;;;;;;;8.57;6.43;;;15.60;99.90;;;;;;5063439;28;20180;-30
2023/09/28 08:02:21;;;;;;;8.43;5.70;;;15.80;99.90;;;;;;5062619;28;20195;-30
2023/09/28 08:04:48;;;;;;;9.00;5.88;;;16.00;99.90;;;;;;5079271;28;20196;-30
2023/09/28 08:07:15;;;;;;;7.90;5.53;;;16.20;99.90;;;;;;5062318;28;20173;-30
2023/09/28 08:09:44;;;;;;;8.48;5.80;;;16.30;99.90;;;;;;5062804;28;20192;-30
2023/09/28 08:12:11;;;;;;;9.05;5.72;;;16.50;99.90;;;;;;5077151;28;20195;-30
2023/09/28 08:14:37;;;;;;;7.28;5.68;;;16.60;99.90;;;;;;5060755;28;20201;-30
2023/09/28 08:17:04;;;;;;;6.18;5.25;;;16.80;99.90;;;;;;5055943;28;20184;-30
2023/09/28 08:19:30;;;;;;;6.78;5.20;;;17.00;99.90;;;;;;5057599;28;20185;-31
2023/09/28 08:21:56;;;;;;;7.88;5.55;;;17.10;99.90;;;;;;5058018;28;20202;-30
2023/09/28 08:24:24;;;;;;;8.63;5.78;;;17.30;99.90;;;;;;5074304;28;20208;-30
2023/09/28 08:26:55;;;;;;;7.05;5.57;;;17.40;99.90;;;;;;5062013;28;20221;-31
2023/09/28 08:29:22;;;;;;;7.05;5.50;;;17.60;99.90;;;;;;5055711;28;20195;-30
2023/09/28 08:31:48;;;;;;;9.43;5.60;;;17.70;99.90;;;;;;5074754;28;20211;-30
2023/09/28 08:34:14;;;;;;;7.38;5.22;;;17.90;99.90;;;;;;5058005;28;20180;-30
2023/09/28 08:36:40;;;;;;;8.32;5.07;;;18.00;99.90;;;;;;5074965;28;20199;-30
2023/09/28 08:39:08;;;;;;;8.20;5.10;;;18.20;99.90;;;;;;5073496;28;20193;-31
2023/09/28 08:41:45;;;;;;;8.68;4.57;;;18.20;99.90;;;;;;5060676;28;20694;-30
2023/09/28 08:44:12;;;;;;;5.63;4.25;;;18.40;99.90;;;;;;5061257;28;20207;-30
2023/09/28 08:46:39;;;;;;;6.32;4.78;;;18.50;99.90;;;;;;5053635;28;20173;-31
2023/09/28 08:49:10;;;;;;;7.45;4.80;;;18.70;99.90;;;;;;5043707;28;20182;-30
2023/09/28 08:51:40;;;;;;;7.65;4.32;;;18.80;99.90;;;;;;5060312;28;20193;-31
2023/09/28 08:54:07;;;;;;;7.40;4.05;;;19.00;99.90;;;;;;5049383;28;20186;-31
2023/09/28 08:56:35;;;;;;;7.15;4.47;;;19.20;99.90;;;;;;5044803;28;20260;-30
2023/09/28 08:59:02;;;;;;;9.90;4.72;;;19.40;99.90;;;;;;5049338;28;20213;-31
2023/09/28 09:01:30;;;;;;;7.78;4.38;;;19.50;99.90;;;;;;5052500;28;20212;-31
2023/09/28 09:03:57;;;;;;;6.72;4.15;;;19.60;99.90;;;;;;5049010;28;20216;-30
2023/09/28 09:06:24;;;;;;;5.85;4.05;;;19.80;99.90;;;;;;5050496;28;20189;-30
2023/09/28 09:08:53;;;;;;;6.35;4.38;;;19.90;99.90;;;;;;5057590;28;20180;-30
2023/09/28 09:11:20;;;;;;;6.00;4.60;;;20.10;99.90;;;;;;5047361;28;20293;-31
2023/09/28 09:13:51;;;;;;;6.10;3.72;;;20.20;99.90;;;;;;5042254;28;20190;-31
2023/09/28 09:16:17;;;;;;;4.10;3.63;;;20.30;99.90;;;;;;5052203;28;20185;-30
2023/09/28 09:18:43;;;;;;;7.43;3.90;;;20.50;99.90;;;;;;5049341;28;20277;-31
2023/09/28 09:21:09;;;;;;;5.97;3.88;;;20.60;99.90;;;;;;5046256;28;20284;-30
2023/09/28 09:23:36;;;;;;;7.50;3.75;;;20.80;99.90;;;;;;5044524;28;20294;-31
2023/09/28 09:26:03;;;;;;;5.35;3.80;;;20.90;99.90;;;;;;5048721;28;20174;-31
2023/09/28 09:28:34;;;;;;;4.65;3.65;;;21.10;99.90;;;;;;5042145;28;20224;-31
2023/09/28 09:31:03;;;;;;;5.20;4.18;;;21.20;99.90;;;;;;5048021;28;20221;-31
2023/09/28 09:33:29;;;;;;;5.63;3.45;;;21.40;99.90;;;;;;5043975;28;20208;-31
2023/09/28 09:35:55;;;;;;;5.93;3.80;;;21.50;99.90;;;;;;5056207;28;20712;-31
2023/09/28 09:38:31;;;;;;;6.43;3.80;;;21.60;99.90;;;;;;5073362;28;20176;-31
2023/09/28 09:41:05;;;;;;;5.93;3.58;;;21.70;99.90;;;;;;5073180;28;20201;-31
2023/09/28 09:43:35;;;;;;;5.10;3.65;;;21.90;99.90;;;;;;5060067;28;20213;-31
2023/09/28 09:46:09;;;;;;;4.78;4.03;;;22.00;99.90;;;;;;5058990;28;20188;-31
2023/09/28 09:48:41;;;;;;;6.25;3.78;;;22.20;99.90;;;;;;5077841;28;20243;-31
2023/09/28 09:51:12;;;;;;;6.65;3.70;;;22.30;99.90;;;;;;5061360;28;20215;-31
2023/09/28 09:53:43;;;;;;;4.80;3.75;;;22.40;99.90;;;;;;5060490;28;20198;-31
2023/09/28 09:56:10;;;;;;;6.53;3.90;;;22.50;99.90;;;;;;5063565;28;20226;-31
2023/09/28 09:58:39;;;;;;;5.25;3.60;;;22.60;99.90;;;;;;5066896;28;20281;-31
2023/09/28 10:01:13;;;;;;;5.47;3.58;;;22.80;99.90;;;;;;5067244;28;20333;-31
2023/09/28 10:03:44;;;;;;;7.32;3.97;;;22.90;99.90;;;;;;5062581;28;20237;-31
2023/09/28 10:06:11;;;;;;;7.30;4.13;;;23.10;99.90;;;;;;5062647;28;20322;-31
2023/09/28 10:08:38;;;;;;;8.40;3.80;;;23.30;99.90;;;;;;5063483;28;20180;-31
2023/09/28 10:11:04;;;;;;;6.63;3.45;;;23.30;99.90;;;;;;5060724;28;20192;-31
2023/09/28 10:13:31;;;;;;;5.22;3.70;;;23.40;99.90;;;;;;5059065;28;20188;-31
2023/09/28 10:16:02;;;;;;;4.70;3.50;;;23.50;99.90;;;;;;5057911;28;20268;-31
2023/09/28 10:18:30;;;;;;;5.13;3.42;;;23.70;99.90;;;;;;5050547;28;20178;-31
2023/09/28 10:20:59;;;;;;;6.25;3.80;;;23.80;99.90;;;;;;5052067;28;20692;-31
2023/09/28 10:23:31;;;;;;;6.00;3.70;;;23.80;99.90;;;;;;5053184;28;20217;-32
2023/09/28 10:25:59;;;;;;;5.82;3.53;;;23.90;99.90;;;;;;5051773;28;20167;-31
2023/09/28 10:28:26;;;;;;;7.32;3.28;;;24.00;99.90;;;;;;5048960;28;20173;-31
2023/09/28 10:31:15;;;;;;;4.45;3.35;;;24.00;99.90;;;;;;5062819;28;20242;-31
2023/09/28 10:34:00;;;;;;;6.78;3.30;;;24.10;99.90;;;;;;5046909;28;20185;-31
2023/09/28 10:36:27;;;;;;;7.53;3.42;;;24.30;99.90;;;;;;5047030;28;20205;-31
2023/09/28 10:39:17;;;;;;;3.03;2.72;;;24.40;99.90;;;;;;5054108;28;20205;-31
2023/09/28 10:41:51;;;;;;;4.60;2.90;;;24.50;99.90;;;;;;5039828;28;20209;-31
2023/09/28 10:44:19;;;;;;;3.95;3.00;;;24.60;99.90;;;;;;5063505;28;20209;-31
2023/09/28 10:46:48;;;;;;;5.13;3.25;;;24.70;99.90;;;;;;5061086;28;20185;-31
2023/09/28 10:49:27;;;;;;;4.47;3.30;;;24.80;99.90;;;;;;5051695;28;20170;-31
2023/09/28 10:51:56;;;;;;;3.63;3.10;;;25.00;99.90;;;;;;5046668;28;20204;-31
2023/09/28 10:54:24;;;;;;;5.07;3.53;;;25.10;99.90;;;;;;5049696;28;20178;-31
2023/09/28 10:56:51;;;;;;;4.28;3.13;;;25.20;99.90;;;;;;5054014;28;20185;-31
2023/09/28 10:59:21;;;;;;;3.58;2.95;;;25.30;99.90;;;;;;5048333;28;20231;-31
2023/09/28 11:01:50;;;;;;;4.90;3.03;;;25.30;99.90;;;;;;5046460;28;20278;-31
2023/09/28 11:04:16;;;;;;;3.75;3.00;;;25.40;99.90;;;;;;5051180;28;20210;-31
2023/09/28 11:06:43;;;;;;;3.78;2.78;;;25.50;99.90;;;;;;5054275;28;20319;-31
2023/09/28 11:09:11;;;;;;;3.60;2.90;;;25.60;99.90;;;;;;5050598;28;20178;-31
2023/09/28 11:11:39;;;;;;;3.83;3.10;;;25.70;99.90;;;;;;5051762;28;20205;-31
2023/09/28 11:14:06;;;;;;;4.47;3.25;;;25.80;99.90;;;;;;5044843;28;20173;-31
2023/09/28 11:16:34;;;;;;;3.85;2.70;;;25.90;99.90;;;;;;5054606;28;20200;-31
2023/09/28 11:19:00;;;;;;;3.40;2.72;;;26.00;99.90;;;;;;5051397;28;20182;-32
2023/09/28 11:21:28;;;;;;;3.67;3.00;;;26.10;99.90;;;;;;5054173;28;20205;-31
2023/09/28 11:23:54;;;;;;;3.92;3.03;;;26.00;99.90;;;;;;5051049;28;20193;-31
2023/09/28 11:26:22;;;;;;;3.30;3.00;;;26.10;99.90;;;;;;5067466;28;20174;-32
2023/09/28 11:28:52;;;;;;;3.53;2.50;;;26.30;99.90;;;;;;5053211;28;20169;-31
2023/09/28 11:31:18;;;;;;;3.00;2.50;;;26.30;99.90;;;;;;5056949;28;20212;-31
2023/09/28 11:33:45;;;;;;;3.20;2.50;;;26.40;99.90;;;;;;5043212;28;20246;-31
2023/09/28 11:36:17;;;;;;;2.28;2.08;;;26.50;99.90;;;;;;5050278;28;20182;-31
2023/09/28 11:38:44;;;;;;;2.10;1.90;;;26.60;99.90;;;;;;5053810;28;20223;-32
2023/09/28 11:41:11;;;;;;;3.90;2.30;;;26.80;99.90;;;;;;5053443;28;20200;-31
2023/09/28 11:43:49;;;;;;;3.00;2.33;;;26.90;99.90;;;;;;5068558;28;20200;-31
2023/09/28 11:46:28;;;;;;;1.95;1.77;;;27.00;99.90;;;;;;5058152;28;20200;-32
2023/09/28 11:49:09;;;;;;;2.13;1.80;;;27.10;99.90;;;;;;5058275;28;20185;-32
2023/09/28 11:51:36;;;;;;;2.20;1.60;;;27.20;99.90;;;;;;5054713;28;20263;-32
2023/09/28 11:54:11;;;;;;;2.17;1.65;;;27.30;99.90;;;;;;5057318;28;20178;-31
2023/09/28 11:56:37;;;;;;;2.25;2.03;;;27.50;99.90;;;;;;5051144;28;20178;-32
2023/09/28 11:59:03;;;;;;;2.17;1.80;;;27.60;99.90;;;;;;5039439;28;20192;-31
2023/09/28 12:01:31;;;;;;;2.17;1.88;;;27.80;99.90;;;;;;5039134;28;20194;-32
2023/09/28 12:03:59;;;;;;;2.70;1.85;;;28.00;99.90;;;;;;5048775;28;20194;-32
2023/09/28 12:06:25;;;;;;;3.58;1.75;;;28.10;99.90;;;;;;5041570;28;20292;-32
2023/09/28 12:08:51;;;;;;;2.25;1.70;;;28.20;99.90;;;;;;5036184;28;20183;-32
2023/09/28 12:11:18;;;;;;;2.30;1.67;;;28.30;99.90;;;;;;5046144;28;20199;-32
2023/09/28 12:13:46;;;;;;;3.35;1.90;;;28.40;99.90;;;;;;5063937;28;20232;-32
2023/09/28 12:16:22;;;;;;;1.85;1.67;;;28.50;99.90;;;;;;5064766;28;20181;-32
2023/09/28 12:18:50;;;;;;;1.58;1.48;;;28.70;99.90;;;;;;5053384;28;20173;-32
2023/09/28 12:21:17;;;;;;;2.28;1.70;;;28.80;99.90;;;;;;5069351;28;20201;-32
2023/09/28 12:23:47;;;;;;;1.67;1.50;;;28.70;99.90;;;;;;5065161;28;20212;-32
2023/09/28 12:26:15;;;;;;;1.70;1.30;;;28.80;99.90;;;;;;5061947;28;20177;-32
2023/09/28 12:28:44;;;;;;;1.88;1.73;;;28.90;99.90;;;;;;5052971;28;20173;-32
2023/09/28 12:31:13;;;;;;;1.60;1.50;;;29.00;99.90;;;;;;5066922;23;20233;-30
2023/09/28 12:33:40;;;;;;;2.42;1.58;;;29.10;99.90;;;;;;5047290;28;20187;-30
2023/09/28 12:36:06;;;;;;;2.05;1.60;;;29.10;99.90;;;;;;5038914;28;20187;-30
2023/09/28 12:38:33;;;;;;;1.48;1.30;;;29.10;99.80;;;;;;5035036;28;20265;-30
2023/09/28 12:40:59;;;;;;;1.40;1.30;;;29.10;96.80;;;;;;5050607;28;20681;-30
2023/09/28 12:43:26;;;;;;;1.60;1.40;;;29.00;97.20;;;;;;5034883;28;20244;-30
2023/09/28 12:45:52;;;;;;;1.58;1.48;;;29.00;97.00;;;;;;5058714;28;20240;-31
2023/09/28 12:48:20;;;;;;;1.70;1.50;;;28.90;97.80;;;;;;5047620;28;20190;-30
2023/09/28 12:50:46;;;;;;;1.50;1.17;;;28.90;97.20;;;;;;5050003;28;20209;-30